Medina, North Dakota
Current Conditions -  °F | °C
As of 7:42 AM on Sunday 21 Dec 2014 (Local Time) from KJMS Reporting Station
Haze Haze  
Wind Chill: 13°   Ceiling: 200
Heat Index: 24°   Visibility: 1.7mi
Dew Point: 20°   Wind: 12mph
Humidity: 84%   Direction: 170°S
Pressure: 29.65"   Gusts: NA
Location:  46.89°N, 99.3°W
Report Text: KJMS 211342Z AUTO 17010KT 1 3/4SM BR OVC002 M04/M07 A2965 RMK AO2 T10441067
Loading
Personal Weather Stations






























Interactive Weather Map New forecast layout! Learn more

10-Day Weather Forecast

Advertisements
Track Severe Weather on mobile